Time;durP1;ratioP1;P1;durP2;ratioP2;P2;SDS_P1;SDS_P2;PMS_P1;PMS_P2;Temp;Humidity;BMP_temperature;BMP_pressure;BME280_temperature;BME280_humidity;BME280_pressure;Samples;Min_cycle;Max_cycle;Signal;HPM_P1;HPM_P2
2022/02/27 00:02:25;;;;;;;11.82;7.00;;;;;;;2.31;58.99;103813.84;5068681;28;20496;-72
2022/02/27 00:04:50;;;;;;;16.75;7.95;;;;;;;2.24;59.08;103820.59;5069813;28;20111;-73
2022/02/27 00:07:16;;;;;;;19.30;10.60;;;;;;;1.97;60.28;103824.34;5065449;28;20024;-73
2022/02/27 00:09:41;;;;;;;27.13;12.38;;;;;;;1.72;61.26;103817.44;5070308;28;20037;-72
2022/02/27 00:12:07;;;;;;;19.17;10.07;;;;;;;1.62;61.02;103815.63;5068072;28;20115;-73
2022/02/27 00:14:33;;;;;;;20.40;9.48;;;;;;;1.68;61.17;103823.06;5069841;28;20039;-72
2022/02/27 00:16:58;;;;;;;19.98;9.18;;;;;;;1.74;61.05;103817.31;5071760;28;20024;-72
2022/02/27 00:19:24;;;;;;;21.25;9.55;;;;;;;1.79;60.58;103821.28;5074981;28;20025;-73
2022/02/27 00:21:50;;;;;;;20.05;9.18;;;;;;;1.82;60.28;103825.53;5070273;28;20039;-73
2022/02/27 00:24:16;;;;;;;14.48;7.50;;;;;;;1.85;60.28;103827.94;5070587;28;20024;-73
2022/02/27 00:26:41;;;;;;;13.90;8.50;;;;;;;1.85;60.39;103822.66;5069280;28;20040;-73
2022/02/27 00:29:07;;;;;;;17.58;6.82;;;;;;;1.85;60.07;103820.00;5070138;28;20032;-72
2022/02/27 00:31:32;;;;;;;13.65;7.00;;;;;;;1.84;60.05;103828.06;5071469;28;20627;-73
2022/02/27 00:33:58;;;;;;;13.75;7.28;;;;;;;1.83;59.95;103821.94;5073440;28;20443;-72
2022/02/27 00:36:24;;;;;;;10.27;6.13;;;;;;;1.83;60.01;103821.94;5074077;28;20043;-73
2022/02/27 00:38:49;;;;;;;12.25;6.30;;;;;;;1.81;59.84;103823.84;5070609;28;20743;-72
2022/02/27 00:41:15;;;;;;;13.02;6.68;;;;;;;1.80;59.99;103820.38;5065862;28;20162;-72
2022/02/27 00:43:40;;;;;;;13.10;6.15;;;;;;;1.78;59.95;103822.25;5072209;28;20028;-73
2022/02/27 00:46:06;;;;;;;13.25;6.28;;;;;;;1.75;59.68;103819.00;5072009;28;20062;-72
2022/02/27 00:48:32;;;;;;;13.55;6.13;;;;;;;1.74;59.89;103817.31;5069998;28;20607;-72
2022/02/27 00:50:58;;;;;;;11.85;6.40;;;;;;;1.72;59.82;103817.44;5072692;28;20727;-72
2022/02/27 00:53:24;;;;;;;13.13;6.43;;;;;;;1.69;60.09;103819.47;5069154;28;20067;-72
2022/02/27 00:55:49;;;;;;;11.93;5.97;;;;;;;1.66;60.04;103809.13;5068502;28;20052;-72
2022/02/27 00:58:15;;;;;;;11.63;6.25;;;;;;;1.62;60.13;103808.53;5070824;28;20024;-72
2022/02/27 01:00:41;;;;;;;13.32;6.60;;;;;;;1.61;60.23;103808.63;5071821;28;20089;-72
2022/02/27 01:03:07;;;;;;;16.77;7.13;;;;;;;1.60;59.97;103814.84;5073018;28;20032;-72
2022/02/27 01:05:32;;;;;;;14.93;7.28;;;;;;;1.57;60.07;103812.44;5073194;28;20029;-72
2022/02/27 01:07:58;;;;;;;15.90;7.47;;;;;;;1.54;59.98;103808.25;5072625;28;20176;-72
2022/02/27 01:10:24;;;;;;;12.23;6.32;;;;;;;1.52;60.20;103812.81;5072920;28;20083;-72
2022/02/27 01:12:49;;;;;;;11.65;6.28;;;;;;;1.49;60.17;103813.88;5073955;28;20021;-72
2022/02/27 01:15:15;;;;;;;16.88;6.90;;;;;;;1.46;60.29;103813.25;5074485;28;20016;-72
2022/02/27 01:17:40;;;;;;;12.52;6.65;;;;;;;1.43;60.12;103813.47;5073681;28;20024;-72
2022/02/27 01:20:07;;;;;;;11.32;6.20;;;;;;;1.28;61.39;103817.25;5073506;28;20039;-72
2022/02/27 01:22:33;;;;;;;13.82;6.95;;;;;;;1.15;61.49;103814.66;5073250;28;20050;-72
2022/02/27 01:24:59;;;;;;;11.43;6.18;;;;;;;1.10;61.91;103817.63;5072283;28;20068;-72
2022/02/27 01:27:24;;;;;;;11.70;6.18;;;;;;;1.10;61.62;103812.34;5074097;28;20059;-73
2022/02/27 01:29:50;;;;;;;12.30;6.10;;;;;;;1.11;61.64;103807.91;5071749;28;20139;-72
2022/02/27 01:32:16;;;;;;;9.02;6.13;;;;;;;1.13;61.14;103811.28;5075626;28;20021;-72
2022/02/27 01:34:42;;;;;;;10.55;5.88;;;;;;;1.14;61.24;103807.69;5071478;28;20032;-72
2022/02/27 01:37:07;;;;;;;10.43;6.03;;;;;;;1.14;61.20;103813.81;5073037;28;20028;-72
2022/02/27 01:39:33;;;;;;;12.15;6.55;;;;;;;1.13;60.95;103800.72;5071108;28;20020;-72
2022/02/27 01:41:58;;;;;;;13.05;5.60;;;;;;;1.12;61.30;103806.97;5070654;28;20032;-72
2022/02/27 01:44:24;;;;;;;11.35;6.00;;;;;;;1.11;61.01;103805.28;5071489;28;20031;-72
2022/02/27 01:46:57;;;;;;;12.77;5.57;;;;;;;1.07;60.82;103809.06;5070994;28;20035;-72
2022/02/27 01:49:22;;;;;;;13.10;6.10;;;;;;;1.07;61.01;103811.69;5072907;28;20028;-72
2022/02/27 01:51:48;;;;;;;14.18;6.35;;;;;;;1.06;61.06;103815.31;5073677;28;20097;-72
2022/02/27 01:54:13;;;;;;;10.27;5.28;;;;;;;1.03;61.04;103813.72;5072392;28;20040;-73
2022/02/27 01:56:41;;;;;;;10.70;6.15;;;;;;;1.02;61.03;103809.41;5072532;28;20016;-72
2022/02/27 01:59:07;;;;;;;13.43;6.55;;;;;;;0.99;61.09;103814.91;5069546;28;20028;-72
2022/02/27 02:01:32;;;;;;;13.80;7.00;;;;;;;0.97;61.31;103815.97;5068400;28;20555;-72
2022/02/27 02:03:59;;;;;;;13.50;5.20;;;;;;;0.96;61.41;103816.94;5070586;28;20028;-72
2022/02/27 02:06:25;;;;;;;11.55;5.70;;;;;;;0.93;61.03;103809.22;5068082;28;20089;-72
2022/02/27 02:08:50;;;;;;;10.55;5.18;;;;;;;0.89;60.78;103820.00;5067725;28;20024;-72
2022/02/27 02:11:16;;;;;;;10.90;5.72;;;;;;;0.88;60.78;103823.59;5069659;28;20031;-72
2022/02/27 02:13:43;;;;;;;10.13;5.40;;;;;;;0.87;60.98;103831.63;5069898;28;20039;-72
2022/02/27 02:16:08;;;;;;;9.38;5.40;;;;;;;0.84;61.18;103830.03;5070616;28;20123;-72
2022/02/27 02:18:38;;;;;;;12.85;5.90;;;;;;;0.80;61.20;103825.94;5067834;28;20138;-73
2022/02/27 02:21:03;;;;;;;9.77;5.78;;;;;;;0.79;61.29;103821.63;5069223;28;20032;-72
2022/02/27 02:23:29;;;;;;;11.98;5.70;;;;;;;0.77;60.99;103820.88;5070338;28;20521;-72
2022/02/27 02:25:54;;;;;;;11.70;5.40;;;;;;;0.74;60.96;103815.81;5071133;28;20024;-73
2022/02/27 02:28:21;;;;;;;12.02;5.78;;;;;;;0.71;61.24;103809.91;5069179;28;20016;-72
2022/02/27 02:30:47;;;;;;;12.48;6.25;;;;;;;0.69;61.61;103810.00;5069088;28;20624;-72
2022/02/27 02:33:12;;;;;;;10.77;6.10;;;;;;;0.66;61.66;103807.59;5069205;28;20098;-72
2022/02/27 02:35:38;;;;;;;10.68;5.40;;;;;;;0.63;61.27;103809.59;5070601;28;20067;-72
2022/02/27 02:38:05;;;;;;;10.43;4.97;;;;;;;0.61;61.58;103809.72;5071000;28;20047;-72
2022/02/27 02:40:31;;;;;;;9.15;5.32;;;;;;;0.60;61.55;103813.31;5068614;28;20035;-72
2022/02/27 02:42:57;;;;;;;10.40;5.35;;;;;;;0.56;61.48;103811.84;5072445;28;20024;-72
2022/02/27 02:45:22;;;;;;;12.40;5.20;;;;;;;0.54;61.46;103817.22;5069630;28;20172;-73
2022/02/27 02:47:51;;;;;;;10.23;5.30;;;;;;;0.48;61.27;103804.44;5069943;28;20073;-72
2022/02/27 02:50:18;;;;;;;12.82;6.03;;;;;;;0.43;61.74;103811.84;5068405;28;20035;-72
2022/02/27 02:52:44;;;;;;;9.48;5.32;;;;;;;0.36;62.04;103809.72;5070592;28;20112;-72
2022/02/27 02:55:14;;;;;;;13.45;6.38;;;;;;;0.30;62.05;103813.63;5071304;28;20020;-72
2022/02/27 02:57:40;;;;;;;13.35;6.20;;;;;;;0.24;62.73;103812.25;5068459;28;20020;-72
2022/02/27 03:00:08;;;;;;;10.38;5.93;;;;;;;0.20;62.40;103817.88;5067931;28;20113;-72
2022/02/27 03:02:35;;;;;;;13.50;6.45;;;;;;;0.17;62.73;103810.13;5069118;28;20027;-72
2022/02/27 03:05:01;;;;;;;11.88;6.68;;;;;;;0.14;63.18;103813.00;5068552;28;20546;-72
2022/02/27 03:07:26;;;;;;;11.68;6.75;;;;;;;0.14;63.17;103821.75;5070814;28;20043;-72
2022/02/27 03:09:52;;;;;;;13.40;6.40;;;;;;;0.15;63.14;103812.88;5069650;28;20038;-72
2022/02/27 03:12:17;;;;;;;15.35;8.23;;;;;;;0.15;63.26;103820.78;5067243;28;20024;-73
2022/02/27 03:14:43;;;;;;;12.90;6.63;;;;;;;0.09;63.51;103823.84;5071553;28;20032;-72
2022/02/27 03:17:08;;;;;;;18.00;8.38;;;;;;;0.08;63.35;103822.16;5070687;28;20031;-72
2022/02/27 03:19:34;;;;;;;16.40;8.15;;;;;;;0.09;63.99;103830.91;5067883;28;20063;-72
2022/02/27 03:21:59;;;;;;;13.73;7.65;;;;;;;0.11;63.60;103834.28;5074406;28;20678;-72
2022/02/27 03:24:25;;;;;;;17.35;7.90;;;;;;;0.11;63.61;103832.50;5069136;28;20032;-72
2022/02/27 03:26:50;;;;;;;18.27;8.32;;;;;;;0.10;63.79;103832.59;5074911;28;20016;-72
2022/02/27 03:29:16;;;;;;;12.77;8.25;;;;;;;0.10;63.83;103830.81;5067806;28;20041;-72
2022/02/27 03:31:41;;;;;;;18.15;8.75;;;;;;;0.08;64.33;103845.06;5070277;28;20032;-72
2022/02/27 03:34:07;;;;;;;13.95;7.78;;;;;;;0.09;63.89;103852.84;5068435;28;20420;-72
2022/02/27 03:36:33;;;;;;;14.65;7.80;;;;;;;0.09;64.12;103847.59;5073360;28;20024;-72
2022/02/27 03:38:59;;;;;;;19.83;8.02;;;;;;;0.10;63.91;103840.53;5072320;28;20485;-72
2022/02/27 03:41:24;;;;;;;19.65;7.68;;;;;;;0.08;63.91;103839.78;5072173;28;20385;-72
2022/02/27 03:43:50;;;;;;;15.48;7.40;;;;;;;0.07;64.15;103854.75;5069976;28;20052;-72
2022/02/27 03:46:15;;;;;;;16.33;7.78;;;;;;;0.06;64.17;103850.44;5071327;28;20023;-72
2022/02/27 03:48:41;;;;;;;15.23;6.80;;;;;;;0.05;64.68;103854.00;5070434;28;20036;-72
2022/02/27 03:51:07;;;;;;;14.40;6.78;;;;;;;0.04;64.23;103852.34;5070076;28;20032;-72
2022/02/27 03:53:33;;;;;;;14.32;7.18;;;;;;;0.04;64.78;103860.25;5073048;28;20028;-72
2022/02/27 03:55:58;;;;;;;13.27;6.68;;;;;;;0.04;64.22;103854.13;5071288;28;20041;-72
2022/02/27 03:58:24;;;;;;;14.30;6.35;;;;;;;0.03;64.38;103860.34;5069732;28;20625;-72
2022/02/27 04:00:50;;;;;;;11.95;6.35;;;;;;;0.01;64.51;103859.59;5072958;28;20073;-72
2022/02/27 04:03:15;;;;;;;12.82;6.18;;;;;;;0.00;64.29;103866.66;5070416;28;20039;-72
2022/02/27 04:05:42;;;;;;;12.18;5.80;;;;;;;-0.02;64.52;103858.84;5074730;28;20469;-72
2022/02/27 04:08:08;;;;;;;13.38;6.90;;;;;;;-0.03;64.32;103861.56;5072259;28;20055;-72
2022/02/27 04:10:33;;;;;;;12.40;6.38;;;;;;;-0.06;64.55;103869.69;5073082;28;20051;-72
2022/02/27 04:12:59;;;;;;;12.38;7.07;;;;;;;-0.09;64.62;103864.63;5070657;28;20032;-72
2022/02/27 04:15:25;;;;;;;15.55;7.40;;;;;;;-0.09;65.10;103862.00;5073434;28;20035;-72
2022/02/27 04:17:51;;;;;;;12.93;6.97;;;;;;;-0.10;65.11;103860.31;5069717;28;20052;-72
2022/02/27 04:20:16;;;;;;;11.27;7.03;;;;;;;-0.11;64.56;103866.53;5070938;28;22477;-72
2022/02/27 04:22:42;;;;;;;14.18;6.72;;;;;;;-0.12;64.86;103873.59;5073372;28;20110;-72
2022/02/27 04:25:08;;;;;;;10.77;5.85;;;;;;;-0.12;64.80;103868.31;5069342;28;20028;-72
2022/02/27 04:27:33;;;;;;;10.43;5.88;;;;;;;-0.13;64.94;103871.06;5069979;28;20032;-72
2022/02/27 04:29:59;;;;;;;14.75;7.22;;;;;;;-0.13;64.67;103871.06;5068624;28;20032;-72
2022/02/27 04:32:24;;;;;;;13.65;6.47;;;;;;;-0.15;64.68;103862.41;5072335;28;20032;-72
2022/02/27 04:34:50;;;;;;;15.15;6.78;;;;;;;-0.16;64.56;103866.00;5071843;28;20026;-72
2022/02/27 04:37:15;;;;;;;12.80;5.80;;;;;;;-0.16;64.39;103864.19;5072530;28;20016;-72
2022/02/27 04:39:41;;;;;;;14.63;6.85;;;;;;;-0.17;64.72;103865.16;5075668;28;20032;-72
2022/02/27 04:42:07;;;;;;;12.80;7.15;;;;;;;-0.19;64.69;103868.81;5074618;28;20035;-72
2022/02/27 04:44:32;;;;;;;15.05;6.78;;;;;;;-0.20;64.59;103869.75;5070831;28;20034;-72
2022/02/27 04:46:58;;;;;;;14.98;6.07;;;;;;;-0.22;64.36;103876.91;5070893;28;20488;-72
2022/02/27 04:49:25;;;;;;;13.45;6.53;;;;;;;-0.25;64.55;103877.13;5071687;28;20036;-72
2022/02/27 04:51:50;;;;;;;12.95;6.97;;;;;;;-0.40;65.90;103873.69;5074943;28;20028;-72
2022/02/27 04:54:16;;;;;;;14.73;8.38;;;;;;;-0.56;66.37;103876.47;5072453;28;20789;-72
2022/02/27 04:56:42;;;;;;;17.33;8.15;;;;;;;-0.63;67.14;103867.28;5072482;28;20024;-72
2022/02/27 04:59:08;;;;;;;18.50;7.70;;;;;;;-0.70;67.18;103877.38;5070295;28;20043;-72
2022/02/27 05:01:33;;;;;;;14.98;8.48;;;;;;;-0.73;67.57;103879.34;5068720;28;20039;-72
2022/02/27 05:04:00;;;;;;;17.48;6.35;;;;;;;-0.73;67.53;103882.81;5071725;28;20074;-71
2022/02/27 05:06:33;;;;;;;17.15;8.38;;;;;;;-0.69;67.08;103878.22;5072979;28;20032;-72
2022/02/27 05:08:58;;;;;;;18.70;7.60;;;;;;;-0.62;67.05;103877.72;5070571;28;20063;-72
2022/02/27 05:11:24;;;;;;;16.70;7.93;;;;;;;-0.57;66.44;103877.41;5073160;28;20168;-72
2022/02/27 05:13:49;;;;;;;12.40;6.93;;;;;;;-0.54;66.02;103885.13;5072745;28;20040;-72
2022/02/27 05:16:15;;;;;;;14.23;6.45;;;;;;;-0.52;66.16;103882.41;5070164;28;20105;-72
2022/02/27 05:18:40;;;;;;;12.48;6.88;;;;;;;-0.50;66.27;103889.25;5069852;28;20017;-72
2022/02/27 05:21:06;;;;;;;14.70;6.82;;;;;;;-0.50;66.13;103889.25;5070166;28;20063;-72
2022/02/27 05:23:32;;;;;;;16.05;7.38;;;;;;;-0.50;65.86;103884.00;5070340;28;20035;-71
2022/02/27 05:25:58;;;;;;;13.02;6.88;;;;;;;-0.49;65.96;103890.94;5071012;28;20088;-72
2022/02/27 05:28:26;;;;;;;17.15;7.43;;;;;;;-0.49;65.78;103890.09;5071960;28;20476;-72
2022/02/27 05:30:53;;;;;;;14.13;6.40;;;;;;;-0.49;66.12;103896.22;5067371;28;20140;-72
2022/02/27 05:33:18;;;;;;;15.65;7.38;;;;;;;-0.48;65.85;103891.81;5069373;28;20127;-72
2022/02/27 05:35:44;;;;;;;11.57;6.70;;;;;;;-0.49;65.85;103900.66;5070510;28;20112;-72
2022/02/27 05:38:10;;;;;;;15.77;8.10;;;;;;;-0.51;65.10;103892.00;5071142;28;20036;-72
2022/02/27 05:40:35;;;;;;;17.42;7.20;;;;;;;-0.52;65.56;103909.59;5067681;28;20029;-72
2022/02/27 05:43:01;;;;;;;14.57;6.72;;;;;;;-0.53;65.26;103909.69;5070748;28;20033;-72
2022/02/27 05:45:26;;;;;;;13.88;7.22;;;;;;;-0.54;65.17;103903.56;5069609;28;20032;-72
2022/02/27 05:47:52;;;;;;;15.07;7.57;;;;;;;-0.56;65.20;103902.81;5072232;28;20024;-72
2022/02/27 05:50:17;;;;;;;23.92;8.25;;;;;;;-0.66;66.50;103909.63;5069025;28;20042;-72
2022/02/27 05:52:43;;;;;;;12.48;7.78;;;;;;;-0.73;66.50;103908.28;5068460;28;20123;-72
2022/02/27 05:55:09;;;;;;;18.50;7.50;;;;;;;-0.76;66.13;103919.03;5069925;28;20028;-72
2022/02/27 05:57:35;;;;;;;11.52;6.30;;;;;;;-0.74;66.62;103914.50;5068119;28;20020;-71
2022/02/27 06:00:00;;;;;;;19.20;6.88;;;;;;;-0.72;66.34;103917.88;5068128;28;20378;-72
2022/02/27 06:02:26;;;;;;;16.20;7.65;;;;;;;-0.71;66.40;103923.09;5068205;28;20035;-72
2022/02/27 06:04:51;;;;;;;13.57;7.13;;;;;;;-0.69;66.32;103918.56;5071184;28;20034;-72
2022/02/27 06:07:17;;;;;;;12.52;7.30;;;;;;;-0.67;66.17;103921.09;5068295;28;20138;-72
2022/02/27 06:09:42;;;;;;;14.38;7.20;;;;;;;-0.67;66.07;103923.72;5068948;28;20539;-72
2022/02/27 06:12:08;;;;;;;12.82;7.50;;;;;;;-0.67;65.72;103923.72;5069508;28;20028;-72
2022/02/27 06:14:34;;;;;;;14.52;6.97;;;;;;;-0.67;65.72;103918.47;5067760;28;20024;-72
2022/02/27 06:16:59;;;;;;;14.82;8.48;;;;;;;-0.66;65.62;103925.41;5052026;23;20495;-46
2022/02/27 06:19:25;;;;;;;14.77;7.88;;;;;;;-0.64;66.05;103926.16;5015819;28;20483;-47
2022/02/27 06:21:50;;;;;;;15.75;7.65;;;;;;;-0.63;66.29;103925.22;5023354;28;20119;-47
2022/02/27 06:24:16;;;;;;;15.25;8.02;;;;;;;-0.63;65.96;103922.59;5039793;28;20537;-50
2022/02/27 06:26:41;;;;;;;19.02;8.07;;;;;;;-0.61;66.10;103931.22;5036727;28;20033;-50
2022/02/27 06:29:07;;;;;;;18.42;7.22;;;;;;;-0.57;66.69;103922.19;5037184;28;20037;-51
2022/02/27 06:31:33;;;;;;;17.67;8.82;;;;;;;-0.53;66.37;103926.34;5035324;28;20506;-54
2022/02/27 06:33:58;;;;;;;19.70;8.07;;;;;;;-0.50;66.18;103928.78;5038880;28;20044;-54
2022/02/27 06:36:24;;;;;;;16.98;7.50;;;;;;;-0.43;66.37;103923.94;5037458;28;20182;-55
2022/02/27 06:38:50;;;;;;;17.10;9.55;;;;;;;-0.40;66.45;103924.59;5036715;28;20183;-50
2022/02/27 06:41:15;;;;;;;13.10;7.47;;;;;;;-0.36;66.59;103926.09;5036151;28;20029;-50
2022/02/27 06:43:43;;;;;;;18.98;7.47;;;;;;;-0.35;67.16;103926.97;5038273;28;20040;-54
2022/02/27 06:46:09;;;;;;;17.25;8.82;;;;;;;-0.30;66.89;103927.50;5035903;28;20024;-54
2022/02/27 06:48:35;;;;;;;22.48;8.80;;;;;;;-0.23;66.50;103944.59;5034435;28;20032;-53
2022/02/27 06:51:00;;;;;;;20.70;8.38;;;;;;;-0.20;66.26;103943.53;5035507;28;20482;-54
2022/02/27 06:53:26;;;;;;;16.17;9.15;;;;;;;-0.18;67.45;103941.66;5035374;28;20471;-53
2022/02/27 06:55:52;;;;;;;20.63;10.48;;;;;;;-0.14;67.60;103943.16;5034582;28;20251;-53
2022/02/27 06:58:18;;;;;;;15.65;7.85;;;;;;;-0.07;67.08;103931.25;5032112;28;20460;-54
2022/02/27 07:00:44;;;;;;;18.02;8.93;;;;;;;0.01;67.24;103944.81;5037898;28;20036;-53
2022/02/27 07:03:10;;;;;;;19.85;11.00;;;;;;;0.07;67.69;103936.47;5033466;28;20421;-51
2022/02/27 07:05:36;;;;;;;20.73;10.68;;;;;;;0.11;68.04;103943.25;5033606;28;20077;-53
2022/02/27 07:08:01;;;;;;;18.50;9.88;;;;;;;0.13;68.63;103938.69;5032459;28;20026;-53
2022/02/27 07:10:27;;;;;;;18.15;10.70;;;;;;;0.19;69.16;103940.13;5037097;28;20032;-55
2022/02/27 07:12:53;;;;;;;23.00;12.18;;;;;;;0.22;69.01;103948.66;5039590;28;20024;-51
2022/02/27 07:15:18;;;;;;;19.08;10.75;;;;;;;0.29;68.90;103949.94;5036332;28;20102;-53
2022/02/27 07:17:44;;;;;;;21.95;11.18;;;;;;;0.38;68.99;103945.84;5035943;28;20434;-52
2022/02/27 07:20:10;;;;;;;21.90;10.13;;;;;;;0.49;68.62;103950.38;5038140;28;20500;-52
2022/02/27 07:22:37;;;;;;;18.75;9.90;;;;;;;0.60;68.34;103951.34;5040466;28;20021;-52
2022/02/27 07:25:04;;;;;;;19.38;9.95;;;;;;;0.72;67.58;103954.97;5040254;28;20406;-53
2022/02/27 07:27:31;;;;;;;16.38;9.70;;;;;;;0.84;67.47;103959.38;5039478;28;20206;-52
2022/02/27 07:29:58;;;;;;;17.10;9.15;;;;;;;0.95;67.48;103965.72;5035158;28;20203;-54
2022/02/27 07:32:23;;;;;;;18.15;9.15;;;;;;;1.04;67.49;103959.81;5039426;28;20287;-51
2022/02/27 07:34:49;;;;;;;21.27;9.65;;;;;;;1.14;67.47;103966.16;5035446;28;20198;-52
2022/02/27 07:37:14;;;;;;;19.27;9.45;;;;;;;1.26;67.38;103961.78;5037637;28;20076;-53
2022/02/27 07:39:40;;;;;;;17.75;9.00;;;;;;;1.35;67.24;103964.63;5039015;28;20032;-50
2022/02/27 07:42:05;;;;;;;16.92;8.88;;;;;;;1.45;67.42;103957.75;5037052;28;20029;-53
2022/02/27 07:44:31;;;;;;;16.38;8.32;;;;;;;1.56;67.16;103961.41;5037533;28;20624;-50
2022/02/27 07:46:57;;;;;;;16.85;9.15;;;;;;;1.66;67.29;103973.84;5039891;28;20206;-56
2022/02/27 07:49:22;;;;;;;14.30;7.93;;;;;;;1.77;67.26;103960.69;5041285;28;20394;-52
2022/02/27 07:51:48;;;;;;;15.93;7.63;;;;;;;1.88;67.31;103962.56;5041462;28;20033;-53
2022/02/27 07:54:13;;;;;;;17.95;7.63;;;;;;;1.99;67.59;103964.44;5042121;28;20473;-53
2022/02/27 07:56:39;;;;;;;13.07;7.28;;;;;;;2.08;67.39;103971.69;5037648;28;20032;-53
2022/02/27 07:59:04;;;;;;;15.15;8.13;;;;;;;2.19;67.48;103968.25;5034922;28;20075;-54
2022/02/27 08:01:31;;;;;;;13.15;7.30;;;;;;;2.29;67.55;103966.59;5036510;28;20028;-51
2022/02/27 08:03:57;;;;;;;19.10;7.38;;;;;;;2.38;67.94;103965.91;5038349;28;20600;-56
2022/02/27 08:06:23;;;;;;;16.40;7.68;;;;;;;2.48;68.20;103966.88;5038235;28;20106;-52
2022/02/27 08:08:49;;;;;;;21.52;8.00;;;;;;;2.58;68.21;103962.59;5042776;28;20425;-51
2022/02/27 08:11:14;;;;;;;14.93;7.07;;;;;;;2.67;68.60;103966.31;5038628;28;20051;-54
2022/02/27 08:13:40;;;;;;;11.88;6.70;;;;;;;2.80;68.00;103974.19;5036919;28;20024;-53
2022/02/27 08:16:06;;;;;;;12.70;6.53;;;;;;;2.92;68.17;103970.59;5035953;28;20044;-50
2022/02/27 08:18:32;;;;;;;10.60;6.15;;;;;;;3.03;67.94;103973.25;5040160;28;20083;-55
2022/02/27 08:20:59;;;;;;;16.90;6.70;;;;;;;3.14;68.13;103964.47;5038487;28;20044;-55
2022/02/27 08:23:24;;;;;;;15.75;7.13;;;;;;;3.25;68.03;103975.06;5039808;28;20094;-52
2022/02/27 08:25:53;;;;;;;16.08;7.15;;;;;;;3.31;68.47;103972.78;5038958;28;20502;-52
2022/02/27 08:28:19;;;;;;;15.65;8.02;;;;;;;3.41;68.27;103966.72;5039801;28;21337;-55
2022/02/27 08:30:45;;;;;;;14.73;7.35;;;;;;;3.52;68.64;103974.69;5035921;28;20063;-53
2022/02/27 08:33:11;;;;;;;14.18;7.68;;;;;;;3.62;68.65;103973.00;5036619;28;20478;-53
2022/02/27 08:35:36;;;;;;;17.17;7.32;;;;;;;3.71;68.62;103966.94;5035708;28;20103;-53
2022/02/27 08:38:02;;;;;;;14.20;7.25;;;;;;;3.83;68.35;103962.44;5035420;28;20093;-52
2022/02/27 08:40:28;;;;;;;13.32;7.15;;;;;;;3.94;68.60;103957.94;5035309;28;20033;-53
2022/02/27 08:42:55;;;;;;;16.35;7.60;;;;;;;4.05;68.55;103962.38;5038532;28;20036;-52
2022/02/27 08:45:22;;;;;;;13.02;6.75;;;;;;;4.20;68.13;103954.97;5035727;28;20029;-53
2022/02/27 08:47:48;;;;;;;17.02;7.10;;;;;;;4.36;67.91;103955.38;5038229;28;20498;-52
2022/02/27 08:50:15;;;;;;;17.67;7.28;;;;;;;4.48;67.73;103964.94;5035131;28;20220;-55
2022/02/27 08:52:41;;;;;;;11.98;7.03;;;;;;;4.60;67.59;103967.53;5040434;28;20521;-51
2022/02/27 08:55:07;;;;;;;14.75;7.10;;;;;;;4.73;67.39;103962.88;5038614;28;20029;-51
2022/02/27 08:57:33;;;;;;;15.98;7.15;;;;;;;4.85;67.47;103961.84;5036975;28;20363;-51
2022/02/27 08:59:59;;;;;;;11.93;5.65;;;;;;;4.95;67.32;103970.69;5036460;28;20033;-56
2022/02/27 09:02:24;;;;;;;18.55;6.63;;;;;;;5.06;67.08;103959.13;5036861;28;20332;-55
2022/02/27 09:04:50;;;;;;;14.57;7.28;;;;;;;5.16;66.84;103968.81;5037372;28;20033;-52
2022/02/27 09:07:16;;;;;;;15.88;6.30;;;;;;;5.25;67.00;103964.53;5038958;28;20475;-54
2022/02/27 09:09:43;;;;;;;15.07;7.00;;;;;;;5.36;66.45;103960.91;5034146;28;20624;-54
2022/02/27 09:12:10;;;;;;;14.77;7.07;;;;;;;5.48;66.40;103965.16;5035070;28;20024;-56
2022/02/27 09:14:37;;;;;;;14.35;6.45;;;;;;;5.56;66.49;103965.31;5036288;28;20098;-54
2022/02/27 09:17:03;;;;;;;15.95;7.00;;;;;;;5.65;66.14;103966.31;5034605;28;20059;-54
2022/02/27 09:19:29;;;;;;;11.85;6.28;;;;;;;5.76;66.09;103969.72;5037899;28;20106;-51
2022/02/27 09:21:56;;;;;;;12.85;5.80;;;;;;;5.87;65.71;103963.41;5036769;28;20371;-52
2022/02/27 09:24:21;;;;;;;13.20;6.57;;;;;;;5.97;65.57;103950.16;5035762;28;20029;-52
2022/02/27 09:26:47;;;;;;;14.73;5.43;;;;;;;6.05;65.30;103961.78;5036120;28;21550;-53
2022/02/27 09:29:13;;;;;;;13.23;6.18;;;;;;;6.17;65.41;103961.66;5035062;28;20133;-55
2022/02/27 09:31:39;;;;;;;13.18;6.07;;;;;;;6.27;64.89;103963.31;5037622;28;21337;-52
2022/02/27 09:34:06;;;;;;;15.38;6.32;;;;;;;6.38;64.56;103958.81;5038242;28;20440;-54
2022/02/27 09:36:32;;;;;;;14.05;6.95;;;;;;;6.47;64.23;103961.50;5036584;28;20024;-52
2022/02/27 09:38:58;;;;;;;12.27;6.20;;;;;;;6.56;64.63;103962.44;5037411;28;20123;-55
2022/02/27 09:41:23;;;;;;;16.15;6.53;;;;;;;6.67;63.94;103970.28;5035399;28;20116;-52
2022/02/27 09:43:56;;;;;;;13.90;6.82;;;;;;;6.78;63.94;103974.59;5035097;28;20055;-56
2022/02/27 09:46:23;;;;;;;13.77;6.15;;;;;;;6.90;63.85;103976.94;5036650;28;20120;-55
2022/02/27 09:48:49;;;;;;;21.90;10.52;;;;;;;6.94;63.34;103978.34;5032357;28;20029;-53
2022/02/27 09:51:16;;;;;;;15.88;7.97;;;;;;;7.01;63.01;103980.44;5037325;28;20086;-51
2022/02/27 09:53:42;;;;;;;15.82;8.07;;;;;;;7.06;63.12;103987.00;5033363;28;20044;-55
2022/02/27 09:56:07;;;;;;;16.75;8.25;;;;;;;7.11;63.17;103981.22;5036088;28;20082;-54
2022/02/27 09:58:33;;;;;;;13.02;7.38;;;;;;;7.15;63.18;103986.13;5036119;28;20021;-51
2022/02/27 10:00:59;;;;;;;18.50;7.50;;;;;;;7.16;63.09;103987.78;5034139;28;20524;-56
2022/02/27 10:03:29;;;;;;;14.65;8.02;;;;;;;7.16;63.02;103986.94;5035698;28;20035;-54
2022/02/27 10:06:03;;;;;;;16.27;8.85;;;;;;;7.19;63.34;103986.69;5036407;28;20135;-54
2022/02/27 10:08:41;;;;;;;15.77;9.27;;;;;;;7.22;62.99;103987.22;5033407;28;20033;-53
2022/02/27 10:11:09;;;;;;;16.92;9.55;;;;;;;7.30;63.11;103997.16;5038455;28;20021;-51
2022/02/27 10:13:42;;;;;;;14.77;8.63;;;;;;;7.25;63.02;103996.75;5033570;28;20148;-53
2022/02/27 10:16:22;;;;;;;14.60;8.43;;;;;;;7.21;63.18;103995.38;5035461;28;20075;-55
2022/02/27 10:18:55;;;;;;;16.05;9.00;;;;;;;7.24;62.96;104001.25;5034480;28;20020;-53
2022/02/27 10:21:24;;;;;;;14.02;8.55;;;;;;;7.23;63.26;103993.41;5035898;28;21779;-48
2022/02/27 10:24:13;;;;;;;17.75;9.68;;;;;;;7.12;62.53;103999.75;5032128;28;20483;-49
2022/02/27 10:26:42;;;;;;;17.83;10.15;;;;;;;7.18;63.00;104001.84;5034979;28;20123;-50
2022/02/27 10:29:18;;;;;;;17.08;9.68;;;;;;;7.11;63.03;103999.91;5030383;28;20384;-51
2022/02/27 10:31:51;;;;;;;15.20;8.90;;;;;;;7.02;62.61;104006.13;5035297;28;20032;-52
2022/02/27 10:34:22;;;;;;;18.80;9.70;;;;;;;6.93;62.84;103997.97;5032754;28;20029;-51
2022/02/27 10:37:05;;;;;;;16.98;9.70;;;;;;;6.84;62.59;103996.19;5037279;28;20159;-48
2022/02/27 10:39:46;;;;;;;18.25;9.85;;;;;;;6.72;62.78;104000.00;5036674;28;20024;-52
2022/02/27 10:42:25;;;;;;;16.38;9.13;;;;;;;6.70;62.42;103988.66;5036938;28;20017;-52
2022/02/27 10:44:59;;;;;;;17.08;8.60;;;;;;;6.64;62.65;103994.53;5036755;28;20017;-50
2022/02/27 10:47:31;;;;;;;16.40;8.68;;;;;;;6.66;62.68;103995.25;5040181;28;20032;-52
2022/02/27 10:49:59;;;;;;;15.45;9.18;;;;;;;6.80;62.84;103992.13;5039026;28;20032;-50
2022/02/27 10:52:30;;;;;;;14.38;8.20;;;;;;;6.89;62.66;103991.25;5039092;28;20033;-51
2022/02/27 10:54:58;;;;;;;15.52;9.07;;;;;;;7.00;62.79;103989.41;5042937;28;20039;-51
2022/02/27 10:57:34;;;;;;;15.32;9.25;;;;;;;7.05;62.15;103995.16;5043524;28;20443;-51
2022/02/27 11:00:19;;;;;;;19.77;10.13;;;;;;;7.07;62.26;103994.03;5039046;28;20055;-53
2022/02/27 11:02:55;;;;;;;;;;;;;;;7.00;61.97;103994.72;5038317;28;21912;-52
2022/02/27 11:05:25;;;;;;;;;;;;;;;7.01;62.00;103991.09;5039994;28;20542;-51
2022/02/27 11:07:56;;;;;;;18.95;9.10;;;;;;;7.11;61.86;103986.56;5039103;28;20077;-50
2022/02/27 11:10:42;;;;;;;14.18;8.73;;;;;;;6.95;61.01;103990.69;5039454;28;20040;-51
2022/02/27 11:13:09;;;;;;;16.20;8.48;;;;;;;6.98;61.51;103985.06;5037100;28;20036;-50
2022/02/27 11:15:36;;;;;;;16.40;8.82;;;;;;;7.00;61.34;103981.41;5039358;28;20033;-52
2022/02/27 11:18:03;;;;;;;18.40;9.50;;;;;;;6.96;61.39;103989.69;5036897;28;20029;-50
2022/02/27 11:20:29;;;;;;;16.90;9.02;;;;;;;6.93;61.69;103982.00;5039993;28;20056;-49
2022/02/27 11:22:56;;;;;;;17.48;9.90;;;;;;;6.96;61.71;103976.34;5038967;28;20121;-49